Maipu, Argentina
Current Conditions -  °F | °C
As of 3:00 AM on Wednesday 26 Nov 2014 (Local Time) from SAME Reporting Station
Thunderstorm Thunderstorm  
Wind Chill: 66°   Ceiling: Unl
Heat Index: 66°   Visibility: 6mi
Dew Point: 36°   Wind: 0mph
Humidity: 32%   Direction: NA
Pressure: 29.91"   Gusts: NA
Location:  32.97°S, 68.78°W
Report Text: SAME 260600Z 00000KT 9999 VCTS FEW040FEW045CB 19/02 Q1013
Loading
Personal Weather Stations






























Interactive Weather Map New forecast layout! Learn more

10-Day Weather Forecast

Advertisements
Track Severe Weather on mobile